sensor_id;sensor_type;location;lat;lon;timestamp;P1;durP1;ratioP1;P2;durP2;ratioP2
10305;SDS011;5198;52.382;9.020;2023-04-24T00:00:04;191.40;;;54.30;;
10305;SDS011;5198;52.382;9.020;2023-04-24T00:04:10;191.70;;;54.10;;
10305;SDS011;5198;52.382;9.020;2023-04-24T00:08:15;193.23;;;54.50;;
10305;SDS011;5198;52.382;9.020;2023-04-24T00:12:20;194.15;;;54.40;;
10305;SDS011;5198;52.382;9.020;2023-04-24T00:16:23;193.20;;;54.80;;
10305;SDS011;5198;52.382;9.020;2023-04-24T00:20:26;193.05;;;54.25;;
10305;SDS011;5198;52.382;9.020;2023-04-24T00:24:30;193.70;;;54.60;;
10305;SDS011;5198;52.382;9.020;2023-04-24T00:28:35;192.60;;;54.00;;
10305;SDS011;5198;52.382;9.020;2023-04-24T00:32:38;192.65;;;54.20;;
10305;SDS011;5198;52.382;9.020;2023-04-24T00:36:41;194.20;;;54.50;;
10305;SDS011;5198;52.382;9.020;2023-04-24T00:40:44;192.57;;;54.23;;
10305;SDS011;5198;52.382;9.020;2023-04-24T00:44:50;192.90;;;54.40;;
10305;SDS011;5198;52.382;9.020;2023-04-24T00:48:53;193.60;;;54.40;;
10305;SDS011;5198;52.382;9.020;2023-04-24T00:52:58;193.70;;;54.70;;
10305;SDS011;5198;52.382;9.020;2023-04-24T00:57:01;193.40;;;54.45;;
10305;SDS011;5198;52.382;9.020;2023-04-24T01:01:07;200.10;;;55.75;;
10305;SDS011;5198;52.382;9.020;2023-04-24T01:05:13;195.80;;;54.70;;
10305;SDS011;5198;52.382;9.020;2023-04-24T01:09:18;195.00;;;54.50;;
10305;SDS011;5198;52.382;9.020;2023-04-24T01:13:23;195.15;;;54.85;;
10305;SDS011;5198;52.382;9.020;2023-04-24T01:17:28;195.30;;;54.70;;
10305;SDS011;5198;52.382;9.020;2023-04-24T01:21:31;194.53;;;54.70;;
10305;SDS011;5198;52.382;9.020;2023-04-24T01:25:39;194.60;;;54.30;;
10305;SDS011;5198;52.382;9.020;2023-04-24T01:29:42;192.20;;;53.65;;
10305;SDS011;5198;52.382;9.020;2023-04-24T01:33:45;193.90;;;54.70;;
10305;SDS011;5198;52.382;9.020;2023-04-24T01:37:49;194.70;;;54.60;;
10305;SDS011;5198;52.382;9.020;2023-04-24T01:41:54;195.45;;;54.90;;
10305;SDS011;5198;52.382;9.020;2023-04-24T01:45:57;192.50;;;54.00;;
10305;SDS011;5198;52.382;9.020;2023-04-24T01:50:00;194.20;;;54.40;;
10305;SDS011;5198;52.382;9.020;2023-04-24T01:54:04;195.73;;;54.83;;
10305;SDS011;5198;52.382;9.020;2023-04-24T01:58:09;194.60;;;54.30;;
10305;SDS011;5198;52.382;9.020;2023-04-24T02:02:13;195.35;;;54.95;;
10305;SDS011;5198;52.382;9.020;2023-04-24T02:06:16;194.90;;;54.85;;
10305;SDS011;5198;52.382;9.020;2023-04-24T02:10:19;195.70;;;54.90;;
10305;SDS011;5198;52.382;9.020;2023-04-24T02:14:24;194.75;;;54.00;;
10305;SDS011;5198;52.382;9.020;2023-04-24T02:18:27;195.20;;;54.70;;
10305;SDS011;5198;52.382;9.020;2023-04-24T02:22:30;195.17;;;54.77;;
10305;SDS011;5198;52.382;9.020;2023-04-24T02:26:33;194.50;;;54.50;;
10305;SDS011;5198;52.382;9.020;2023-04-24T02:30:37;195.05;;;54.75;;
10305;SDS011;5198;52.382;9.020;2023-04-24T02:34:40;195.50;;;55.00;;
10305;SDS011;5198;52.382;9.020;2023-04-24T02:38:44;195.73;;;54.40;;
10305;SDS011;5198;52.382;9.020;2023-04-24T02:42:46;193.70;;;54.00;;
10305;SDS011;5198;52.382;9.020;2023-04-24T02:46:51;195.60;;;54.80;;
10305;SDS011;5198;52.382;9.020;2023-04-24T02:50:54;196.10;;;54.90;;
10305;SDS011;5198;52.382;9.020;2023-04-24T02:54:57;196.83;;;55.13;;
10305;SDS011;5198;52.382;9.020;2023-04-24T02:59:00;196.73;;;54.67;;
10305;SDS011;5198;52.382;9.020;2023-04-24T03:03:04;195.80;;;54.50;;
10305;SDS011;5198;52.382;9.020;2023-04-24T03:19:18;197.10;;;55.10;;
10305;SDS011;5198;52.382;9.020;2023-04-24T03:27:24;198.47;;;54.97;;
10305;SDS011;5198;52.382;9.020;2023-04-24T10:22:21;215.60;;;59.25;;
10305;SDS011;5198;52.382;9.020;2023-04-24T10:26:25;216.70;;;59.80;;
10305;SDS011;5198;52.382;9.020;2023-04-24T10:30:30;214.93;;;58.93;;
10305;SDS011;5198;52.382;9.020;2023-04-24T10:34:36;214.38;;;58.97;;
10305;SDS011;5198;52.382;9.020;2023-04-24T10:38:41;208.90;;;58.80;;
10305;SDS011;5198;52.382;9.020;2023-04-24T10:42:51;195.27;;;54.80;;
10305;SDS011;5198;52.382;9.020;2023-04-24T10:46:58;191.80;;;54.00;;
10305;SDS011;5198;52.382;9.020;2023-04-24T10:51:01;191.60;;;53.60;;
10305;SDS011;5198;52.382;9.020;2023-04-24T10:55:06;192.27;;;54.37;;
10305;SDS011;5198;52.382;9.020;2023-04-24T10:59:09;192.65;;;54.50;;
10305;SDS011;5198;52.382;9.020;2023-04-24T11:03:24;191.90;;;54.20;;
10305;SDS011;5198;52.382;9.020;2023-04-24T11:07:29;193.00;;;54.40;;
10305;SDS011;5198;52.382;9.020;2023-04-24T11:11:34;191.70;;;53.80;;
10305;SDS011;5198;52.382;9.020;2023-04-24T11:15:38;193.00;;;54.35;;
10305;SDS011;5198;52.382;9.020;2023-04-24T11:19:44;192.73;;;54.53;;
10305;SDS011;5198;52.382;9.020;2023-04-24T11:23:55;193.03;;;54.90;;
10305;SDS011;5198;52.382;9.020;2023-04-24T11:28:06;190.90;;;54.20;;
10305;SDS011;5198;52.382;9.020;2023-04-24T11:32:16;190.17;;;53.17;;
10305;SDS011;5198;52.382;9.020;2023-04-24T11:36:21;191.83;;;54.20;;
10305;SDS011;5198;52.382;9.020;2023-04-24T11:40:25;192.68;;;54.47;;
10305;SDS011;5198;52.382;9.020;2023-04-24T11:44:29;192.80;;;54.20;;
10305;SDS011;5198;52.382;9.020;2023-04-24T11:48:34;192.85;;;54.30;;
10305;SDS011;5198;52.382;9.020;2023-04-24T11:52:41;192.73;;;53.67;;
10305;SDS011;5198;52.382;9.020;2023-04-24T11:56:45;193.07;;;54.60;;
10305;SDS011;5198;52.382;9.020;2023-04-24T12:00:57;194.35;;;54.80;;
10305;SDS011;5198;52.382;9.020;2023-04-24T12:05:00;193.57;;;54.67;;
10305;SDS011;5198;52.382;9.020;2023-04-24T12:09:04;193.23;;;54.63;;
10305;SDS011;5198;52.382;9.020;2023-04-24T12:13:18;190.83;;;53.73;;
10305;SDS011;5198;52.382;9.020;2023-04-24T12:17:27;194.03;;;54.27;;
10305;SDS011;5198;52.382;9.020;2023-04-24T12:21:31;200.05;;;55.80;;
10305;SDS011;5198;52.382;9.020;2023-04-24T12:25:34;193.00;;;53.90;;
10305;SDS011;5198;52.382;9.020;2023-04-24T12:29:37;193.30;;;54.00;;
10305;SDS011;5198;52.382;9.020;2023-04-24T12:33:56;193.40;;;54.85;;
10305;SDS011;5198;52.382;9.020;2023-04-24T12:38:04;195.50;;;54.95;;
10305;SDS011;5198;52.382;9.020;2023-04-24T12:42:09;193.47;;;54.07;;
10305;SDS011;5198;52.382;9.020;2023-04-24T12:46:12;195.10;;;55.00;;
10305;SDS011;5198;52.382;9.020;2023-04-24T12:50:19;205.40;;;57.40;;
10305;SDS011;5198;52.382;9.020;2023-04-24T12:54:22;196.40;;;54.70;;
10305;SDS011;5198;52.382;9.020;2023-04-24T12:58:26;194.65;;;54.35;;
10305;SDS011;5198;52.382;9.020;2023-04-24T13:02:29;198.30;;;55.13;;
10305;SDS011;5198;52.382;9.020;2023-04-24T13:06:34;195.20;;;54.40;;
10305;SDS011;5198;52.382;9.020;2023-04-24T13:10:37;197.10;;;54.90;;
10305;SDS011;5198;52.382;9.020;2023-04-24T13:14:41;198.10;;;54.95;;
10305;SDS011;5198;52.382;9.020;2023-04-24T13:18:44;198.52;;;54.95;;
10305;SDS011;5198;52.382;9.020;2023-04-24T13:22:48;198.20;;;54.80;;
10305;SDS011;5198;52.382;9.020;2023-04-24T13:26:52;199.23;;;54.90;;
10305;SDS011;5198;52.382;9.020;2023-04-24T13:30:58;198.60;;;55.00;;
10305;SDS011;5198;52.382;9.020;2023-04-24T13:35:01;198.90;;;54.90;;
10305;SDS011;5198;52.382;9.020;2023-04-24T13:39:06;198.90;;;55.13;;
10305;SDS011;5198;52.382;9.020;2023-04-24T13:43:09;199.50;;;55.60;;
10305;SDS011;5198;52.382;9.020;2023-04-24T13:47:12;198.45;;;54.90;;
10305;SDS011;5198;52.382;9.020;2023-04-24T13:51:15;199.25;;;55.60;;
10305;SDS011;5198;52.382;9.020;2023-04-24T13:55:19;199.10;;;55.10;;
10305;SDS011;5198;52.382;9.020;2023-04-24T13:59:22;197.20;;;54.13;;
10305;SDS011;5198;52.382;9.020;2023-04-24T14:03:26;199.80;;;55.70;;
10305;SDS011;5198;52.382;9.020;2023-04-24T14:07:29;198.85;;;55.10;;
10305;SDS011;5198;52.382;9.020;2023-04-24T14:11:34;198.50;;;55.10;;
10305;SDS011;5198;52.382;9.020;2023-04-24T14:15:37;198.85;;;55.45;;
10305;SDS011;5198;52.382;9.020;2023-04-24T14:19:41;198.40;;;54.90;;
10305;SDS011;5198;52.382;9.020;2023-04-24T14:23:44;199.60;;;56.40;;
10305;SDS011;5198;52.382;9.020;2023-04-24T14:27:48;198.40;;;54.80;;
10305;SDS011;5198;52.382;9.020;2023-04-24T14:31:51;199.20;;;55.20;;
10305;SDS011;5198;52.382;9.020;2023-04-24T14:35:54;198.20;;;55.15;;
10305;SDS011;5198;52.382;9.020;2023-04-24T14:39:57;198.10;;;55.00;;
10305;SDS011;5198;52.382;9.020;2023-04-24T14:44:22;196.00;;;55.10;;
10305;SDS011;5198;52.382;9.020;2023-04-24T14:48:25;199.10;;;55.60;;
10305;SDS011;5198;52.382;9.020;2023-04-24T14:52:28;196.60;;;55.10;;
10305;SDS011;5198;52.382;9.020;2023-04-24T14:56:31;198.33;;;55.43;;
10305;SDS011;5198;52.382;9.020;2023-04-24T15:00:35;197.65;;;55.75;;
10305;SDS011;5198;52.382;9.020;2023-04-24T15:04:39;199.60;;;55.70;;
10305;SDS011;5198;52.382;9.020;2023-04-24T15:08:42;200.37;;;56.07;;
10305;SDS011;5198;52.382;9.020;2023-04-24T15:12:48;199.30;;;56.17;;
10305;SDS011;5198;52.382;9.020;2023-04-24T15:16:53;201.10;;;56.95;;
10305;SDS011;5198;52.382;9.020;2023-04-24T15:20:56;202.30;;;57.20;;
10305;SDS011;5198;52.382;9.020;2023-04-24T15:24:59;200.80;;;56.70;;
10305;SDS011;5198;52.382;9.020;2023-04-24T15:29:02;199.80;;;56.50;;
10305;SDS011;5198;52.382;9.020;2023-04-24T15:33:06;199.97;;;56.00;;
10305;SDS011;5198;52.382;9.020;2023-04-24T15:37:10;197.00;;;54.80;;
10305;SDS011;5198;52.382;9.020;2023-04-24T15:41:14;201.60;;;56.85;;
10305;SDS011;5198;52.382;9.020;2023-04-24T15:45:17;201.70;;;56.50;;
10305;SDS011;5198;52.382;9.020;2023-04-24T15:49:21;202.80;;;56.90;;
10305;SDS011;5198;52.382;9.020;2023-04-24T15:53:24;203.85;;;57.35;;
10305;SDS011;5198;52.382;9.020;2023-04-24T15:57:28;203.10;;;57.50;;
10305;SDS011;5198;52.382;9.020;2023-04-24T16:01:31;199.70;;;55.75;;
10305;SDS011;5198;52.382;9.020;2023-04-24T16:05:36;202.13;;;56.47;;
10305;SDS011;5198;52.382;9.020;2023-04-24T16:09:40;202.43;;;56.33;;
10305;SDS011;5198;52.382;9.020;2023-04-24T16:13:43;203.30;;;58.10;;
10305;SDS011;5198;52.382;9.020;2023-04-24T16:17:47;202.30;;;56.70;;
10305;SDS011;5198;52.382;9.020;2023-04-24T16:21:52;204.13;;;57.33;;
10305;SDS011;5198;52.382;9.020;2023-04-24T16:25:56;204.10;;;57.20;;
10305;SDS011;5198;52.382;9.020;2023-04-24T16:29:59;203.80;;;57.20;;
10305;SDS011;5198;52.382;9.020;2023-04-24T16:34:02;203.10;;;57.53;;
10305;SDS011;5198;52.382;9.020;2023-04-24T16:38:07;203.03;;;57.07;;
10305;SDS011;5198;52.382;9.020;2023-04-24T16:42:10;199.70;;;55.30;;
10305;SDS011;5198;52.382;9.020;2023-04-24T16:46:14;203.40;;;56.93;;
10305;SDS011;5198;52.382;9.020;2023-04-24T16:50:17;203.40;;;57.20;;
10305;SDS011;5198;52.382;9.020;2023-04-24T16:54:22;203.98;;;57.33;;
10305;SDS011;5198;52.382;9.020;2023-04-24T16:58:25;203.25;;;56.75;;
10305;SDS011;5198;52.382;9.020;2023-04-24T17:02:29;205.17;;;57.73;;
10305;SDS011;5198;52.382;9.020;2023-04-24T17:06:32;206.13;;;58.10;;
10305;SDS011;5198;52.382;9.020;2023-04-24T17:10:36;203.13;;;56.70;;
10305;SDS011;5198;52.382;9.020;2023-04-24T17:14:41;204.65;;;56.95;;
10305;SDS011;5198;52.382;9.020;2023-04-24T17:18:44;203.15;;;56.75;;
10305;SDS011;5198;52.382;9.020;2023-04-24T17:22:47;205.40;;;57.60;;
10305;SDS011;5198;52.382;9.020;2023-04-24T17:26:52;204.10;;;57.30;;
10305;SDS011;5198;52.382;9.020;2023-04-24T17:31:02;205.10;;;57.50;;
10305;SDS011;5198;52.382;9.020;2023-04-24T17:35:05;204.43;;;57.43;;
10305;SDS011;5198;52.382;9.020;2023-04-24T17:39:09;204.63;;;57.70;;
10305;SDS011;5198;52.382;9.020;2023-04-24T17:43:14;205.20;;;57.33;;
10305;SDS011;5198;52.382;9.020;2023-04-24T17:47:18;206.77;;;58.10;;
10305;SDS011;5198;52.382;9.020;2023-04-24T17:51:22;201.70;;;56.20;;
10305;SDS011;5198;52.382;9.020;2023-04-24T17:55:26;204.97;;;57.03;;
10305;SDS011;5198;52.382;9.020;2023-04-24T17:59:31;202.15;;;56.60;;
10305;SDS011;5198;52.382;9.020;2023-04-24T18:03:36;206.10;;;57.80;;
10305;SDS011;5198;52.382;9.020;2023-04-24T18:07:44;205.30;;;57.63;;
10305;SDS011;5198;52.382;9.020;2023-04-24T18:11:48;209.65;;;58.95;;
10305;SDS011;5198;52.382;9.020;2023-04-24T18:15:52;207.90;;;58.40;;
10305;SDS011;5198;52.382;9.020;2023-04-24T18:19:55;221.35;;;60.10;;
10305;SDS011;5198;52.382;9.020;2023-04-24T18:23:58;220.00;;;61.23;;
10305;SDS011;5198;52.382;9.020;2023-04-24T18:28:03;217.90;;;60.20;;
10305;SDS011;5198;52.382;9.020;2023-04-24T18:32:07;227.20;;;60.90;;
10305;SDS011;5198;52.382;9.020;2023-04-24T18:36:10;227.70;;;61.20;;
10305;SDS011;5198;52.382;9.020;2023-04-24T18:40:14;227.90;;;60.30;;
10305;SDS011;5198;52.382;9.020;2023-04-24T18:44:18;228.40;;;60.07;;
10305;SDS011;5198;52.382;9.020;2023-04-24T18:48:22;229.60;;;60.75;;
10305;SDS011;5198;52.382;9.020;2023-04-24T18:52:25;228.00;;;60.67;;
10305;SDS011;5198;52.382;9.020;2023-04-24T18:56:29;225.65;;;61.10;;
10305;SDS011;5198;52.382;9.020;2023-04-24T19:00:31;211.00;;;58.90;;
10305;SDS011;5198;52.382;9.020;2023-04-24T19:04:36;206.70;;;56.80;;
10305;SDS011;5198;52.382;9.020;2023-04-24T19:08:39;209.60;;;58.30;;
10305;SDS011;5198;52.382;9.020;2023-04-24T19:12:43;210.40;;;59.00;;
10305;SDS011;5198;52.382;9.020;2023-04-24T19:16:46;211.23;;;58.97;;
10305;SDS011;5198;52.382;9.020;2023-04-24T19:20:51;210.07;;;58.42;;
10305;SDS011;5198;52.382;9.020;2023-04-24T19:24:54;206.40;;;56.90;;
10305;SDS011;5198;52.382;9.020;2023-04-24T19:28:58;209.30;;;58.10;;
10305;SDS011;5198;52.382;9.020;2023-04-24T19:33:01;209.80;;;58.10;;
10305;SDS011;5198;52.382;9.020;2023-04-24T19:37:06;209.80;;;58.20;;
10305;SDS011;5198;52.382;9.020;2023-04-24T19:41:09;209.45;;;57.50;;
10305;SDS011;5198;52.382;9.020;2023-04-24T19:45:12;208.20;;;57.40;;
10305;SDS011;5198;52.382;9.020;2023-04-24T19:49:15;206.40;;;56.70;;
10305;SDS011;5198;52.382;9.020;2023-04-24T19:53:20;208.07;;;57.47;;
10305;SDS011;5198;52.382;9.020;2023-04-24T19:57:23;204.63;;;56.30;;
10305;SDS011;5198;52.382;9.020;2023-04-24T20:01:26;205.70;;;56.50;;
10305;SDS011;5198;52.382;9.020;2023-04-24T20:05:29;229.40;;;61.90;;
10305;SDS011;5198;52.382;9.020;2023-04-24T20:09:33;229.70;;;60.80;;
10305;SDS011;5198;52.382;9.020;2023-04-24T20:13:36;227.70;;;61.20;;
10305;SDS011;5198;52.382;9.020;2023-04-24T20:17:40;226.70;;;60.90;;
10305;SDS011;5198;52.382;9.020;2023-04-24T20:21:43;226.55;;;60.65;;
10305;SDS011;5198;52.382;9.020;2023-04-24T20:25:49;228.40;;;60.05;;
10305;SDS011;5198;52.382;9.020;2023-04-24T20:29:58;226.80;;;60.55;;
10305;SDS011;5198;52.382;9.020;2023-04-24T20:34:02;226.63;;;61.43;;
10305;SDS011;5198;52.382;9.020;2023-04-24T20:38:07;224.45;;;60.75;;
10305;SDS011;5198;52.382;9.020;2023-04-24T20:42:12;225.70;;;60.70;;
10305;SDS011;5198;52.382;9.020;2023-04-24T20:46:16;226.65;;;60.70;;
10305;SDS011;5198;52.382;9.020;2023-04-24T20:50:19;226.37;;;60.73;;
10305;SDS011;5198;52.382;9.020;2023-04-24T20:54:23;226.25;;;60.60;;
10305;SDS011;5198;52.382;9.020;2023-04-24T20:58:28;224.30;;;60.60;;
10305;SDS011;5198;52.382;9.020;2023-04-24T21:02:31;222.25;;;60.25;;
10305;SDS011;5198;52.382;9.020;2023-04-24T21:06:34;220.95;;;60.30;;
10305;SDS011;5198;52.382;9.020;2023-04-24T21:10:37;212.10;;;59.25;;
10305;SDS011;5198;52.382;9.020;2023-04-24T21:14:42;209.90;;;58.70;;
10305;SDS011;5198;52.382;9.020;2023-04-24T21:18:45;210.13;;;58.77;;
10305;SDS011;5198;52.382;9.020;2023-04-24T21:22:48;208.15;;;57.75;;
10305;SDS011;5198;52.382;9.020;2023-04-24T21:26:51;211.47;;;59.70;;
10305;SDS011;5198;52.382;9.020;2023-04-24T21:30:55;211.40;;;59.35;;
10305;SDS011;5198;52.382;9.020;2023-04-24T21:34:58;210.20;;;58.70;;
10305;SDS011;5198;52.382;9.020;2023-04-24T21:39:01;211.50;;;59.10;;
10305;SDS011;5198;52.382;9.020;2023-04-24T21:43:04;210.50;;;58.90;;
10305;SDS011;5198;52.382;9.020;2023-04-24T21:47:09;209.00;;;57.70;;
10305;SDS011;5198;52.382;9.020;2023-04-24T21:51:12;208.60;;;57.60;;
10305;SDS011;5198;52.382;9.020;2023-04-24T21:55:16;209.70;;;58.40;;
10305;SDS011;5198;52.382;9.020;2023-04-24T21:59:21;209.70;;;58.50;;
10305;SDS011;5198;52.382;9.020;2023-04-24T22:03:26;210.40;;;58.60;;
10305;SDS011;5198;52.382;9.020;2023-04-24T22:07:32;212.63;;;59.13;;
10305;SDS011;5198;52.382;9.020;2023-04-24T22:11:36;209.60;;;58.40;;
10305;SDS011;5198;52.382;9.020;2023-04-24T22:15:39;211.95;;;58.95;;
10305;SDS011;5198;52.382;9.020;2023-04-24T22:19:44;211.45;;;58.70;;
10305;SDS011;5198;52.382;9.020;2023-04-24T22:23:47;212.85;;;59.95;;
10305;SDS011;5198;52.382;9.020;2023-04-24T22:27:50;210.83;;;57.97;;
10305;SDS011;5198;52.382;9.020;2023-04-24T22:31:53;212.30;;;58.95;;
10305;SDS011;5198;52.382;9.020;2023-04-24T22:35:59;212.40;;;59.10;;
10305;SDS011;5198;52.382;9.020;2023-04-24T22:40:03;211.30;;;58.50;;
10305;SDS011;5198;52.382;9.020;2023-04-24T22:44:08;210.80;;;58.60;;
10305;SDS011;5198;52.382;9.020;2023-04-24T22:48:12;207.90;;;57.20;;
10305;SDS011;5198;52.382;9.020;2023-04-24T22:52:16;210.97;;;58.30;;
10305;SDS011;5198;52.382;9.020;2023-04-24T22:56:19;210.60;;;58.10;;
10305;SDS011;5198;52.382;9.020;2023-04-24T23:00:22;210.93;;;58.27;;
10305;SDS011;5198;52.382;9.020;2023-04-24T23:04:25;211.07;;;57.90;;
10305;SDS011;5198;52.382;9.020;2023-04-24T23:08:30;210.30;;;57.70;;
10305;SDS011;5198;52.382;9.020;2023-04-24T23:12:34;212.85;;;58.70;;
10305;SDS011;5198;52.382;9.020;2023-04-24T23:16:37;212.00;;;58.90;;
10305;SDS011;5198;52.382;9.020;2023-04-24T23:20:41;213.20;;;58.70;;
10305;SDS011;5198;52.382;9.020;2023-04-24T23:24:45;210.93;;;58.00;;
10305;SDS011;5198;52.382;9.020;2023-04-24T23:28:48;210.30;;;57.70;;
10305;SDS011;5198;52.382;9.020;2023-04-24T23:32:52;213.43;;;58.70;;
10305;SDS011;5198;52.382;9.020;2023-04-24T23:36:55;212.90;;;58.50;;
10305;SDS011;5198;52.382;9.020;2023-04-24T23:40:59;212.70;;;58.40;;
10305;SDS011;5198;52.382;9.020;2023-04-24T23:45:02;209.90;;;57.10;;
10305;SDS011;5198;52.382;9.020;2023-04-24T23:49:06;213.05;;;58.20;;
10305;SDS011;5198;52.382;9.020;2023-04-24T23:57:14;210.90;;;57.60;;
